sensor_id;sensor_type;location;lat;lon;timestamp;pressure;altitude;pressure_sealevel;temperature;humidity
8298;BME280;4187;42.778;23.242;2023-04-25T00:02:11;94505.31;;;11.62;100.00
8298;BME280;4187;42.778;23.242;2023-04-25T00:04:38;94496.41;;;11.55;100.00
8298;BME280;4187;42.778;23.242;2023-04-25T00:07:05;94515.91;;;11.54;100.00
8298;BME280;4187;42.778;23.242;2023-04-25T00:09:33;94514.06;;;11.55;100.00
8298;BME280;4187;42.778;23.242;2023-04-25T00:12:00;94521.81;;;11.72;100.00
8298;BME280;4187;42.778;23.242;2023-04-25T00:14:27;94523.28;;;11.75;100.00
8298;BME280;4187;42.778;23.242;2023-04-25T00:16:54;94526.06;;;11.81;100.00
8298;BME280;4187;42.778;23.242;2023-04-25T00:19:21;94531.00;;;11.84;100.00
8298;BME280;4187;42.778;23.242;2023-04-25T00:21:48;94528.03;;;11.87;100.00
8298;BME280;4187;42.778;23.242;2023-04-25T00:24:15;94528.03;;;11.87;100.00
8298;BME280;4187;42.778;23.242;2023-04-25T00:26:43;94525.53;;;11.94;100.00
8298;BME280;4187;42.778;23.242;2023-04-25T00:29:10;94522.03;;;12.02;100.00
8298;BME280;4187;42.778;23.242;2023-04-25T00:31:37;94519.56;;;12.00;100.00
8298;BME280;4187;42.778;23.242;2023-04-25T00:34:03;94524.38;;;11.96;100.00
8298;BME280;4187;42.778;23.242;2023-04-25T00:36:30;94505.59;;;11.83;100.00
8298;BME280;4187;42.778;23.242;2023-04-25T00:38:57;94514.44;;;11.98;100.00
8298;BME280;4187;42.778;23.242;2023-04-25T00:41:25;94492.69;;;11.88;100.00
8298;BME280;4187;42.778;23.242;2023-04-25T00:43:54;94520.22;;;12.02;100.00
8298;BME280;4187;42.778;23.242;2023-04-25T00:46:21;94508.13;;;12.08;100.00
8298;BME280;4187;42.778;23.242;2023-04-25T00:48:48;94494.03;;;12.15;100.00
8298;BME280;4187;42.778;23.242;2023-04-25T00:51:16;94474.09;;;12.05;100.00
8298;BME280;4187;42.778;23.242;2023-04-25T00:53:45;94499.19;;;12.09;100.00
8298;BME280;4187;42.778;23.242;2023-04-25T00:56:13;94498.38;;;12.08;100.00
8298;BME280;4187;42.778;23.242;2023-04-25T00:58:41;94494.25;;;12.06;100.00
8298;BME280;4187;42.778;23.242;2023-04-25T01:01:10;94492.59;;;12.05;100.00
8298;BME280;4187;42.778;23.242;2023-04-25T01:03:38;94493.44;;;12.05;100.00
8298;BME280;4187;42.778;23.242;2023-04-25T01:06:07;94496.53;;;12.09;100.00
8298;BME280;4187;42.778;23.242;2023-04-25T01:08:34;94485.31;;;12.07;100.00
8298;BME280;4187;42.778;23.242;2023-04-25T01:11:01;94485.97;;;12.09;100.00
8298;BME280;4187;42.778;23.242;2023-04-25T01:13:28;94467.88;;;11.89;100.00
8298;BME280;4187;42.778;23.242;2023-04-25T01:15:57;94484.53;;;11.98;100.00
8298;BME280;4187;42.778;23.242;2023-04-25T01:18:25;94472.78;;;12.00;100.00
8298;BME280;4187;42.778;23.242;2023-04-25T01:20:52;94481.38;;;12.03;100.00
8298;BME280;4187;42.778;23.242;2023-04-25T01:23:22;94468.19;;;11.94;100.00
8298;BME280;4187;42.778;23.242;2023-04-25T01:25:49;94471.84;;;11.93;100.00
8298;BME280;4187;42.778;23.242;2023-04-25T01:28:17;94472.06;;;11.84;100.00
8298;BME280;4187;42.778;23.242;2023-04-25T01:30:46;94475.19;;;11.79;100.00
8298;BME280;4187;42.778;23.242;2023-04-25T01:33:14;94466.66;;;11.69;100.00
8298;BME280;4187;42.778;23.242;2023-04-25T01:35:42;94476.56;;;11.67;100.00
8298;BME280;4187;42.778;23.242;2023-04-25T01:38:08;94480.50;;;11.63;100.00
8298;BME280;4187;42.778;23.242;2023-04-25T01:40:39;94443.94;;;11.36;100.00
8298;BME280;4187;42.778;23.242;2023-04-25T01:43:07;94469.81;;;11.57;100.00
8298;BME280;4187;42.778;23.242;2023-04-25T01:45:36;94466.00;;;11.59;100.00
8298;BME280;4187;42.778;23.242;2023-04-25T01:48:05;94462.38;;;11.52;100.00
8298;BME280;4187;42.778;23.242;2023-04-25T01:50:32;94466.34;;;11.56;100.00
8298;BME280;4187;42.778;23.242;2023-04-25T01:52:59;94460.03;;;11.57;100.00
8298;BME280;4187;42.778;23.242;2023-04-25T01:55:27;94466.81;;;11.60;100.00
8298;BME280;4187;42.778;23.242;2023-04-25T01:57:55;94456.41;;;11.58;100.00
8298;BME280;4187;42.778;23.242;2023-04-25T02:00:22;94462.91;;;11.39;100.00
8298;BME280;4187;42.778;23.242;2023-04-25T02:02:49;94469.03;;;11.40;100.00
8298;BME280;4187;42.778;23.242;2023-04-25T02:05:19;94450.72;;;11.30;100.00
8298;BME280;4187;42.778;23.242;2023-04-25T02:07:47;94464.41;;;11.42;100.00
8298;BME280;4187;42.778;23.242;2023-04-25T02:10:14;94465.03;;;11.44;100.00
8298;BME280;4187;42.778;23.242;2023-04-25T02:12:41;94464.75;;;11.39;100.00
8298;BME280;4187;42.778;23.242;2023-04-25T02:15:10;94458.47;;;11.40;100.00
8298;BME280;4187;42.778;23.242;2023-04-25T02:17:37;94464.25;;;11.35;100.00
8298;BME280;4187;42.778;23.242;2023-04-25T02:20:05;94420.56;;;11.17;100.00
8298;BME280;4187;42.778;23.242;2023-04-25T02:22:33;94441.81;;;11.31;100.00
8298;BME280;4187;42.778;23.242;2023-04-25T02:25:01;94442.66;;;11.32;100.00
8298;BME280;4187;42.778;23.242;2023-04-25T02:27:29;94437.84;;;11.27;100.00
8298;BME280;4187;42.778;23.242;2023-04-25T02:29:56;94440.34;;;11.29;100.00
8298;BME280;4187;42.778;23.242;2023-04-25T02:32:24;94393.88;;;10.96;100.00
8298;BME280;4187;42.778;23.242;2023-04-25T02:34:52;94430.78;;;11.20;100.00
8298;BME280;4187;42.778;23.242;2023-04-25T02:37:19;94385.47;;;10.92;100.00
8298;BME280;4187;42.778;23.242;2023-04-25T02:39:46;94424.34;;;11.14;100.00
8298;BME280;4187;42.778;23.242;2023-04-25T02:42:13;94415.44;;;11.15;100.00
8298;BME280;4187;42.778;23.242;2023-04-25T02:44:39;94408.03;;;11.11;100.00
8298;BME280;4187;42.778;23.242;2023-04-25T02:47:06;94407.06;;;11.04;100.00
8298;BME280;4187;42.778;23.242;2023-04-25T02:49:34;94422.06;;;11.11;100.00
8298;BME280;4187;42.778;23.242;2023-04-25T02:52:01;94420.25;;;11.12;100.00
8298;BME280;4187;42.778;23.242;2023-04-25T02:54:28;94401.13;;;11.02;100.00
8298;BME280;4187;42.778;23.242;2023-04-25T02:56:55;94422.88;;;11.12;100.00
8298;BME280;4187;42.778;23.242;2023-04-25T02:59:22;94420.41;;;11.10;100.00
8298;BME280;4187;42.778;23.242;2023-04-25T03:01:49;94419.09;;;11.06;100.00
8298;BME280;4187;42.778;23.242;2023-04-25T03:04:16;94418.63;;;11.03;100.00
8298;BME280;4187;42.778;23.242;2023-04-25T03:06:45;94416.78;;;11.03;100.00
8298;BME280;4187;42.778;23.242;2023-04-25T03:09:12;94414.84;;;10.97;100.00
8298;BME280;4187;42.778;23.242;2023-04-25T03:11:39;94419.44;;;10.95;100.00
8298;BME280;4187;42.778;23.242;2023-04-25T03:14:06;94420.28;;;10.88;100.00
8298;BME280;4187;42.778;23.242;2023-04-25T03:16:32;94415.34;;;10.85;100.00
8298;BME280;4187;42.778;23.242;2023-04-25T03:18:59;94414.53;;;10.76;100.00
8298;BME280;4187;42.778;23.242;2023-04-25T03:21:26;94388.34;;;10.42;100.00
8298;BME280;4187;42.778;23.242;2023-04-25T03:23:54;94410.75;;;10.46;100.00
8298;BME280;4187;42.778;23.242;2023-04-25T03:26:21;94406.75;;;10.99;100.00
8298;BME280;4187;42.778;23.242;2023-04-25T03:28:48;94411.22;;;12.15;100.00
8298;BME280;4187;42.778;23.242;2023-04-25T03:31:15;94410.50;;;12.66;100.00
8298;BME280;4187;42.778;23.242;2023-04-25T03:33:41;94406.63;;;13.29;100.00
8298;BME280;4187;42.778;23.242;2023-04-25T03:36:08;94398.69;;;13.43;100.00
8298;BME280;4187;42.778;23.242;2023-04-25T03:38:36;94418.94;;;13.80;100.00
8298;BME280;4187;42.778;23.242;2023-04-25T03:41:04;94427.03;;;13.93;100.00
8298;BME280;4187;42.778;23.242;2023-04-25T03:43:31;94429.22;;;14.04;100.00
8298;BME280;4187;42.778;23.242;2023-04-25T03:45:57;94425.94;;;14.02;100.00
8298;BME280;4187;42.778;23.242;2023-04-25T03:48:25;94434.75;;;14.24;100.00
8298;BME280;4187;42.778;23.242;2023-04-25T03:50:52;94420.09;;;14.28;100.00
8298;BME280;4187;42.778;23.242;2023-04-25T03:53:19;94442.03;;;14.51;100.00
8298;BME280;4187;42.778;23.242;2023-04-25T03:55:46;94445.53;;;14.37;100.00
8298;BME280;4187;42.778;23.242;2023-04-25T03:58:14;94439.31;;;13.79;100.00
8298;BME280;4187;42.778;23.242;2023-04-25T04:00:40;94438.34;;;12.99;100.00
8298;BME280;4187;42.778;23.242;2023-04-25T04:03:07;94430.28;;;12.55;100.00
8298;BME280;4187;42.778;23.242;2023-04-25T04:05:34;94431.44;;;12.30;100.00
8298;BME280;4187;42.778;23.242;2023-04-25T04:08:02;94412.34;;;11.97;100.00
8298;BME280;4187;42.778;23.242;2023-04-25T04:10:29;94412.78;;;11.78;100.00
8298;BME280;4187;42.778;23.242;2023-04-25T04:12:56;94418.22;;;11.77;100.00
8298;BME280;4187;42.778;23.242;2023-04-25T04:15:24;94407.47;;;11.78;100.00
8298;BME280;4187;42.778;23.242;2023-04-25T04:17:51;94403.66;;;11.81;100.00
8298;BME280;4187;42.778;23.242;2023-04-25T04:20:17;94397.56;;;11.80;100.00
8298;BME280;4187;42.778;23.242;2023-04-25T04:22:44;94396.19;;;11.84;100.00
8298;BME280;4187;42.778;23.242;2023-04-25T04:25:11;94401.47;;;11.84;100.00
8298;BME280;4187;42.778;23.242;2023-04-25T04:27:38;94410.94;;;11.79;100.00
8298;BME280;4187;42.778;23.242;2023-04-25T04:30:06;94392.81;;;11.68;100.00
8298;BME280;4187;42.778;23.242;2023-04-25T04:32:35;94406.66;;;11.78;100.00
8298;BME280;4187;42.778;23.242;2023-04-25T04:35:03;94402.88;;;11.72;100.00
8298;BME280;4187;42.778;23.242;2023-04-25T04:37:31;94415.88;;;11.82;100.00
8298;BME280;4187;42.778;23.242;2023-04-25T04:39:58;94417.34;;;11.84;100.00
8298;BME280;4187;42.778;23.242;2023-04-25T04:42:26;94422.13;;;11.89;100.00
8298;BME280;4187;42.778;23.242;2023-04-25T04:44:53;94417.28;;;11.92;100.00
8298;BME280;4187;42.778;23.242;2023-04-25T04:47:20;94407.19;;;11.96;100.00
8298;BME280;4187;42.778;23.242;2023-04-25T04:49:50;94418.28;;;11.99;100.00
8298;BME280;4187;42.778;23.242;2023-04-25T04:52:17;94424.19;;;12.02;100.00
8298;BME280;4187;42.778;23.242;2023-04-25T04:54:44;94416.06;;;12.03;100.00
8298;BME280;4187;42.778;23.242;2023-04-25T04:57:11;94425.66;;;12.04;100.00
8298;BME280;4187;42.778;23.242;2023-04-25T04:59:37;94430.63;;;12.07;100.00
8298;BME280;4187;42.778;23.242;2023-04-25T05:02:04;94444.47;;;12.09;100.00
8298;BME280;4187;42.778;23.242;2023-04-25T05:04:31;94437.03;;;12.13;100.00
8298;BME280;4187;42.778;23.242;2023-04-25T05:06:59;94432.88;;;12.18;100.00
8298;BME280;4187;42.778;23.242;2023-04-25T05:09:26;94440.44;;;12.21;100.00
8298;BME280;4187;42.778;23.242;2023-04-25T05:11:53;94413.28;;;12.05;100.00
8298;BME280;4187;42.778;23.242;2023-04-25T05:14:20;94432.16;;;12.24;100.00
8298;BME280;4187;42.778;23.242;2023-04-25T05:16:48;94442.69;;;12.32;100.00
8298;BME280;4187;42.778;23.242;2023-04-25T05:19:15;94439.03;;;12.33;100.00
8298;BME280;4187;42.778;23.242;2023-04-25T05:21:41;94442.84;;;12.31;100.00
8298;BME280;4187;42.778;23.242;2023-04-25T05:24:10;94436.09;;;12.28;100.00
8298;BME280;4187;42.778;23.242;2023-04-25T05:26:37;94434.91;;;12.31;100.00
8298;BME280;4187;42.778;23.242;2023-04-25T05:29:05;94435.69;;;12.39;100.00
8298;BME280;4187;42.778;23.242;2023-04-25T05:31:32;94412.75;;;12.32;100.00
8298;BME280;4187;42.778;23.242;2023-04-25T05:33:59;94427.34;;;12.50;100.00
8298;BME280;4187;42.778;23.242;2023-04-25T05:36:26;94422.28;;;12.64;100.00
8298;BME280;4187;42.778;23.242;2023-04-25T05:38:53;94433.28;;;12.75;100.00
8298;BME280;4187;42.778;23.242;2023-04-25T05:41:21;94429.53;;;12.84;100.00
8298;BME280;4187;42.778;23.242;2023-04-25T05:43:48;94430.34;;;12.85;100.00
8298;BME280;4187;42.778;23.242;2023-04-25T05:46:15;94429.16;;;12.87;100.00
8298;BME280;4187;42.778;23.242;2023-04-25T05:48:43;94431.66;;;12.89;100.00
8298;BME280;4187;42.778;23.242;2023-04-25T05:51:10;94430.94;;;12.95;100.00
8298;BME280;4187;42.778;23.242;2023-04-25T05:53:36;94435.06;;;12.97;100.00
8298;BME280;4187;42.778;23.242;2023-04-25T05:56:03;94439.19;;;13.00;100.00
8298;BME280;4187;42.778;23.242;2023-04-25T05:58:32;94444.44;;;13.08;100.00
8298;BME280;4187;42.778;23.242;2023-04-25T06:00:58;94440.59;;;13.10;100.00
8298;BME280;4187;42.778;23.242;2023-04-25T06:03:25;94440.44;;;13.04;100.00
8298;BME280;4187;42.778;23.242;2023-04-25T06:05:52;94435.66;;;13.07;100.00
8298;BME280;4187;42.778;23.242;2023-04-25T06:08:19;94438.78;;;13.11;100.00
8298;BME280;4187;42.778;23.242;2023-04-25T06:10:46;94436.56;;;13.14;100.00
8298;BME280;4187;42.778;23.242;2023-04-25T06:13:13;94430.00;;;13.10;100.00
8298;BME280;4187;42.778;23.242;2023-04-25T06:15:42;94434.09;;;13.13;100.00
8298;BME280;4187;42.778;23.242;2023-04-25T06:18:08;94436.03;;;13.19;100.00
8298;BME280;4187;42.778;23.242;2023-04-25T06:20:35;94433.19;;;13.21;100.00
8298;BME280;4187;42.778;23.242;2023-04-25T06:23:02;94436.66;;;13.36;100.00
8298;BME280;4187;42.778;23.242;2023-04-25T06:25:29;94445.56;;;13.43;100.00
8298;BME280;4187;42.778;23.242;2023-04-25T06:27:56;94444.28;;;13.53;100.00
8298;BME280;4187;42.778;23.242;2023-04-25T06:30:23;94444.06;;;13.55;100.00
8298;BME280;4187;42.778;23.242;2023-04-25T06:32:52;94439.63;;;13.70;100.00
8298;BME280;4187;42.778;23.242;2023-04-25T06:35:19;94437.13;;;13.83;100.00
8298;BME280;4187;42.778;23.242;2023-04-25T06:37:46;94439.75;;;13.98;100.00
8298;BME280;4187;42.778;23.242;2023-04-25T06:40:13;94434.63;;;14.11;100.00
8298;BME280;4187;42.778;23.242;2023-04-25T06:42:40;94438.72;;;14.13;100.00
8298;BME280;4187;42.778;23.242;2023-04-25T06:45:07;94441.53;;;14.26;100.00
8298;BME280;4187;42.778;23.242;2023-04-25T06:47:34;94440.25;;;14.22;100.00
8298;BME280;4187;42.778;23.242;2023-04-25T06:50:03;94442.91;;;14.58;100.00
8298;BME280;4187;42.778;23.242;2023-04-25T06:52:30;94454.66;;;14.91;100.00
8298;BME280;4187;42.778;23.242;2023-04-25T06:54:57;94455.88;;;14.89;100.00
8298;BME280;4187;42.778;23.242;2023-04-25T06:57:24;94458.66;;;14.81;100.00
8298;BME280;4187;42.778;23.242;2023-04-25T06:59:51;94461.44;;;14.73;100.00
8298;BME280;4187;42.778;23.242;2023-04-25T07:02:18;94467.06;;;14.63;100.00
8298;BME280;4187;42.778;23.242;2023-04-25T07:04:46;94466.31;;;14.69;100.00
8298;BME280;4187;42.778;23.242;2023-04-25T07:07:14;94464.66;;;14.68;100.00
8298;BME280;4187;42.778;23.242;2023-04-25T07:09:42;94467.56;;;14.73;100.00
8298;BME280;4187;42.778;23.242;2023-04-25T07:12:09;94461.63;;;14.71;100.00
8298;BME280;4187;42.778;23.242;2023-04-25T07:14:35;94461.25;;;14.74;100.00
8298;BME280;4187;42.778;23.242;2023-04-25T07:17:03;94463.91;;;14.74;100.00
8298;BME280;4187;42.778;23.242;2023-04-25T07:19:32;94465.84;;;14.87;100.00
8298;BME280;4187;42.778;23.242;2023-04-25T07:21:58;94460.41;;;14.95;100.00
8298;BME280;4187;42.778;23.242;2023-04-25T07:24:27;94407.19;;;14.61;100.00
8298;BME280;4187;42.778;23.242;2023-04-25T07:26:53;94452.56;;;14.87;100.00
8298;BME280;4187;42.778;23.242;2023-04-25T07:29:20;94456.25;;;14.86;100.00
8298;BME280;4187;42.778;23.242;2023-04-25T07:31:47;94455.09;;;14.95;100.00
8298;BME280;4187;42.778;23.242;2023-04-25T07:34:14;94440.66;;;15.04;100.00
8298;BME280;4187;42.778;23.242;2023-04-25T07:36:41;94443.19;;;15.12;100.00
8298;BME280;4187;42.778;23.242;2023-04-25T07:39:07;94447.09;;;15.16;100.00
8298;BME280;4187;42.778;23.242;2023-04-25T07:41:36;94447.34;;;15.21;100.00
8298;BME280;4187;42.778;23.242;2023-04-25T07:44:03;94451.25;;;15.25;100.00
8298;BME280;4187;42.778;23.242;2023-04-25T07:46:30;94383.94;;;14.90;100.00
8298;BME280;4187;42.778;23.242;2023-04-25T07:48:56;94452.00;;;15.40;100.00
8298;BME280;4187;42.778;23.242;2023-04-25T07:51:23;94448.19;;;15.49;100.00
8298;BME280;4187;42.778;23.242;2023-04-25T07:53:51;94451.56;;;15.65;100.00
8298;BME280;4187;42.778;23.242;2023-04-25T07:56:18;94458.00;;;15.83;100.00
8298;BME280;4187;42.778;23.242;2023-04-25T07:58:46;94453.19;;;16.06;100.00
8298;BME280;4187;42.778;23.242;2023-04-25T08:01:13;94443.28;;;16.35;100.00
8298;BME280;4187;42.778;23.242;2023-04-25T08:03:39;94434.50;;;16.47;100.00
8298;BME280;4187;42.778;23.242;2023-04-25T08:06:06;94442.16;;;16.57;100.00
8298;BME280;4187;42.778;23.242;2023-04-25T08:08:33;94444.81;;;16.63;100.00
8298;BME280;4187;42.778;23.242;2023-04-25T08:11:00;94445.44;;;16.59;100.00
8298;BME280;4187;42.778;23.242;2023-04-25T08:13:27;94446.81;;;16.48;100.00
8298;BME280;4187;42.778;23.242;2023-04-25T08:15:55;94453.94;;;16.41;100.00
8298;BME280;4187;42.778;23.242;2023-04-25T08:18:22;94450.41;;;16.28;100.00
8298;BME280;4187;42.778;23.242;2023-04-25T08:20:49;94448.91;;;16.12;100.00
8298;BME280;4187;42.778;23.242;2023-04-25T08:23:16;94443.78;;;16.04;100.00
8298;BME280;4187;42.778;23.242;2023-04-25T08:25:42;94450.09;;;15.96;100.00
8298;BME280;4187;42.778;23.242;2023-04-25T08:28:09;94344.78;;;15.33;100.00
8298;BME280;4187;42.778;23.242;2023-04-25T08:30:36;94452.53;;;15.98;100.00
8298;BME280;4187;42.778;23.242;2023-04-25T08:33:04;94446.41;;;15.97;100.00
8298;BME280;4187;42.778;23.242;2023-04-25T08:35:31;94437.84;;;16.02;100.00
8298;BME280;4187;42.778;23.242;2023-04-25T08:37:59;94438.09;;;16.13;100.00
8298;BME280;4187;42.778;23.242;2023-04-25T08:40:27;94438.53;;;16.24;100.00
8298;BME280;4187;42.778;23.242;2023-04-25T08:42:56;94445.56;;;16.38;100.00
8298;BME280;4187;42.778;23.242;2023-04-25T08:45:24;94449.97;;;16.65;100.00
8298;BME280;4187;42.778;23.242;2023-04-25T08:47:53;94437.28;;;16.87;100.00
8298;BME280;4187;42.778;23.242;2023-04-25T08:50:23;94444.25;;;17.20;100.00
8298;BME280;4187;42.778;23.242;2023-04-25T08:52:53;94447.53;;;17.49;100.00
8298;BME280;4187;42.778;23.242;2023-04-25T08:55:21;94448.16;;;17.57;100.00
8298;BME280;4187;42.778;23.242;2023-04-25T08:57:49;94447.75;;;17.60;100.00
8298;BME280;4187;42.778;23.242;2023-04-25T09:00:18;94448.97;;;17.58;100.00
8298;BME280;4187;42.778;23.242;2023-04-25T09:02:46;94446.50;;;17.63;100.00
8298;BME280;4187;42.778;23.242;2023-04-25T09:05:14;94433.78;;;17.65;100.00
8298;BME280;4187;42.778;23.242;2023-04-25T09:07:42;94429.22;;;17.85;100.00
8298;BME280;4187;42.778;23.242;2023-04-25T09:10:09;94412.38;;;17.84;100.00
8298;BME280;4187;42.778;23.242;2023-04-25T09:12:36;94406.91;;;18.24;100.00
8298;BME280;4187;42.778;23.242;2023-04-25T09:15:07;94420.38;;;18.48;100.00
8298;BME280;4187;42.778;23.242;2023-04-25T09:17:34;94413.09;;;18.62;100.00
8298;BME280;4187;42.778;23.242;2023-04-25T09:20:07;94420.72;;;18.59;100.00
8298;BME280;4187;42.778;23.242;2023-04-25T09:22:34;94421.81;;;18.51;100.00
8298;BME280;4187;42.778;23.242;2023-04-25T09:25:07;94420.44;;;18.22;100.00
8298;BME280;4187;42.778;23.242;2023-04-25T09:27:34;94394.94;;;17.88;100.00
8298;BME280;4187;42.778;23.242;2023-04-25T09:30:01;94406.03;;;17.79;100.00
8298;BME280;4187;42.778;23.242;2023-04-25T09:32:28;94421.47;;;17.70;100.00
8298;BME280;4187;42.778;23.242;2023-04-25T09:34:56;94417.75;;;17.78;100.00
8298;BME280;4187;42.778;23.242;2023-04-25T09:37:25;94416.63;;;18.05;100.00
8298;BME280;4187;42.778;23.242;2023-04-25T09:39:54;94398.75;;;18.57;100.00
8298;BME280;4187;42.778;23.242;2023-04-25T09:42:23;94409.81;;;18.91;100.00
8298;BME280;4187;42.778;23.242;2023-04-25T09:44:52;94402.81;;;19.22;100.00
8298;BME280;4187;42.778;23.242;2023-04-25T09:47:19;94407.09;;;19.23;99.76
8298;BME280;4187;42.778;23.242;2023-04-25T09:49:47;94412.66;;;18.96;99.84
8298;BME280;4187;42.778;23.242;2023-04-25T09:52:15;94405.31;;;18.92;98.46
8298;BME280;4187;42.778;23.242;2023-04-25T09:54:43;94401.69;;;19.04;100.00
8298;BME280;4187;42.778;23.242;2023-04-25T09:57:11;94403.88;;;19.14;100.00
8298;BME280;4187;42.778;23.242;2023-04-25T09:59:44;94409.63;;;19.18;100.00
8298;BME280;4187;42.778;23.242;2023-04-25T10:02:12;94385.38;;;19.13;100.00
8298;BME280;4187;42.778;23.242;2023-04-25T10:04:44;94420.78;;;19.39;96.03
8298;BME280;4187;42.778;23.242;2023-04-25T10:07:14;94411.91;;;19.39;97.18
8298;BME280;4187;42.778;23.242;2023-04-25T10:09:41;94414.63;;;19.07;95.70
8298;BME280;4187;42.778;23.242;2023-04-25T10:12:11;94408.00;;;18.85;95.87
8298;BME280;4187;42.778;23.242;2023-04-25T10:14:39;94423.88;;;18.42;99.30
8298;BME280;4187;42.778;23.242;2023-04-25T10:17:07;94450.63;;;17.59;98.65
8298;BME280;4187;42.778;23.242;2023-04-25T10:19:36;94435.25;;;17.02;99.00
8298;BME280;4187;42.778;23.242;2023-04-25T10:22:07;94436.34;;;16.47;100.00
8298;BME280;4187;42.778;23.242;2023-04-25T10:24:35;94429.00;;;15.95;100.00
8298;BME280;4187;42.778;23.242;2023-04-25T10:27:03;94439.56;;;15.47;100.00
8298;BME280;4187;42.778;23.242;2023-04-25T10:29:30;94427.38;;;15.04;100.00
8298;BME280;4187;42.778;23.242;2023-04-25T10:31:59;94417.59;;;14.83;100.00
8298;BME280;4187;42.778;23.242;2023-04-25T10:34:38;94423.31;;;14.59;100.00
8298;BME280;4187;42.778;23.242;2023-04-25T10:37:08;94414.31;;;14.39;100.00
8298;BME280;4187;42.778;23.242;2023-04-25T10:39:35;94409.97;;;14.31;100.00
8298;BME280;4187;42.778;23.242;2023-04-25T10:42:02;94391.56;;;14.30;100.00
8298;BME280;4187;42.778;23.242;2023-04-25T10:44:30;94385.13;;;14.39;100.00
8298;BME280;4187;42.778;23.242;2023-04-25T10:46:59;94388.22;;;14.43;100.00
8298;BME280;4187;42.778;23.242;2023-04-25T10:49:31;94365.72;;;14.60;100.00
8298;BME280;4187;42.778;23.242;2023-04-25T10:52:17;94386.06;;;15.02;100.00
8298;BME280;4187;42.778;23.242;2023-04-25T10:54:48;94385.00;;;15.24;100.00
8298;BME280;4187;42.778;23.242;2023-04-25T10:57:32;94380.09;;;15.55;100.00
8298;BME280;4187;42.778;23.242;2023-04-25T11:00:06;94386.13;;;15.77;100.00
8298;BME280;4187;42.778;23.242;2023-04-25T11:02:41;94377.63;;;16.01;100.00
8298;BME280;4187;42.778;23.242;2023-04-25T11:05:08;94378.53;;;16.28;100.00
8298;BME280;4187;42.778;23.242;2023-04-25T11:07:38;94386.44;;;16.62;100.00
8298;BME280;4187;42.778;23.242;2023-04-25T11:10:06;94373.50;;;16.98;100.00
8298;BME280;4187;42.778;23.242;2023-04-25T11:12:33;94356.50;;;17.19;100.00
8298;BME280;4187;42.778;23.242;2023-04-25T11:15:01;94379.81;;;17.63;100.00
8298;BME280;4187;42.778;23.242;2023-04-25T11:17:29;94387.09;;;17.93;100.00
8298;BME280;4187;42.778;23.242;2023-04-25T11:20:00;94385.94;;;18.27;100.00
8298;BME280;4187;42.778;23.242;2023-04-25T11:22:27;94386.22;;;18.57;100.00
8298;BME280;4187;42.778;23.242;2023-04-25T11:24:55;94380.69;;;18.83;98.08
8298;BME280;4187;42.778;23.242;2023-04-25T11:27:22;94382.59;;;19.01;95.90
8298;BME280;4187;42.778;23.242;2023-04-25T11:29:50;94379.09;;;19.00;93.75
8298;BME280;4187;42.778;23.242;2023-04-25T11:32:17;94369.28;;;18.94;95.37
8298;BME280;4187;42.778;23.242;2023-04-25T11:34:44;94371.72;;;18.96;98.24
8298;BME280;4187;42.778;23.242;2023-04-25T11:37:14;94369.53;;;19.36;92.19
8298;BME280;4187;42.778;23.242;2023-04-25T11:39:45;94375.78;;;19.54;91.34
8298;BME280;4187;42.778;23.242;2023-04-25T11:42:12;94349.84;;;19.73;92.94
8298;BME280;4187;42.778;23.242;2023-04-25T11:44:39;94347.66;;;19.82;87.44
8298;BME280;4187;42.778;23.242;2023-04-25T11:47:07;94358.44;;;19.75;81.04
8298;BME280;4187;42.778;23.242;2023-04-25T11:49:33;94347.41;;;19.47;82.53
8298;BME280;4187;42.778;23.242;2023-04-25T11:52:01;94344.56;;;19.24;83.38
8298;BME280;4187;42.778;23.242;2023-04-25T11:54:29;94341.59;;;19.07;82.61
8298;BME280;4187;42.778;23.242;2023-04-25T11:56:56;94335.34;;;18.95;85.24
8298;BME280;4187;42.778;23.242;2023-04-25T11:59:24;94336.94;;;18.78;88.07
8298;BME280;4187;42.778;23.242;2023-04-25T12:01:52;94342.66;;;18.50;86.30
8298;BME280;4187;42.778;23.242;2023-04-25T12:04:20;94339.72;;;18.27;88.79
8298;BME280;4187;42.778;23.242;2023-04-25T12:06:49;94332.81;;;18.06;88.28
8298;BME280;4187;42.778;23.242;2023-04-25T12:09:18;94338.03;;;17.95;88.52
8298;BME280;4187;42.778;23.242;2023-04-25T12:11:49;94304.50;;;17.61;90.81
8298;BME280;4187;42.778;23.242;2023-04-25T12:14:24;94362.56;;;17.52;98.84
8298;BME280;4187;42.778;23.242;2023-04-25T12:16:52;94374.94;;;17.20;100.00
8298;BME280;4187;42.778;23.242;2023-04-25T12:19:23;94351.94;;;16.47;100.00
8298;BME280;4187;42.778;23.242;2023-04-25T12:21:50;94371.66;;;15.92;100.00
8298;BME280;4187;42.778;23.242;2023-04-25T12:24:21;94361.09;;;15.24;100.00
8298;BME280;4187;42.778;23.242;2023-04-25T12:26:52;94377.81;;;15.18;100.00
8298;BME280;4187;42.778;23.242;2023-04-25T12:29:22;94383.06;;;15.11;100.00
8298;BME280;4187;42.778;23.242;2023-04-25T12:31:50;94367.63;;;15.21;100.00
8298;BME280;4187;42.778;23.242;2023-04-25T12:34:18;94367.63;;;15.55;100.00
8298;BME280;4187;42.778;23.242;2023-04-25T12:36:45;94337.59;;;15.68;100.00
8298;BME280;4187;42.778;23.242;2023-04-25T12:39:16;94366.44;;;16.19;100.00
8298;BME280;4187;42.778;23.242;2023-04-25T12:41:43;94367.09;;;16.27;100.00
8298;BME280;4187;42.778;23.242;2023-04-25T12:44:11;94360.94;;;16.27;100.00
8298;BME280;4187;42.778;23.242;2023-04-25T12:46:38;94368.53;;;16.30;100.00
8298;BME280;4187;42.778;23.242;2023-04-25T12:49:06;94367.09;;;16.27;100.00
8298;BME280;4187;42.778;23.242;2023-04-25T12:51:33;94368.72;;;16.22;100.00
8298;BME280;4187;42.778;23.242;2023-04-25T12:54:01;94372.34;;;16.14;100.00
8298;BME280;4187;42.778;23.242;2023-04-25T12:56:28;94372.38;;;16.21;100.00
8298;BME280;4187;42.778;23.242;2023-04-25T12:58:55;94376.03;;;16.20;100.00
8298;BME280;4187;42.778;23.242;2023-04-25T13:01:24;94380.97;;;16.16;100.00
8298;BME280;4187;42.778;23.242;2023-04-25T13:03:52;94357.16;;;15.95;100.00
8298;BME280;4187;42.778;23.242;2023-04-25T13:06:19;94384.88;;;16.13;100.00